sensor_id;sensor_type;location;lat;lon;timestamp;P1;durP1;ratioP1;P2;durP2;ratioP2
8042;SDS011;4064;48.132;11.366;2023-06-10T00:02:11;9.03;;;8.23;;
8042;SDS011;4064;48.132;11.366;2023-06-10T00:04:37;8.13;;;7.27;;
8042;SDS011;4064;48.132;11.366;2023-06-10T00:07:03;9.73;;;8.50;;
8042;SDS011;4064;48.132;11.366;2023-06-10T00:09:34;10.23;;;8.03;;
8042;SDS011;4064;48.132;11.366;2023-06-10T00:12:03;8.73;;;7.87;;
8042;SDS011;4064;48.132;11.366;2023-06-10T00:14:31;9.57;;;8.70;;
8042;SDS011;4064;48.132;11.366;2023-06-10T00:17:02;9.30;;;8.27;;
8042;SDS011;4064;48.132;11.366;2023-06-10T00:19:28;8.13;;;7.13;;
8042;SDS011;4064;48.132;11.366;2023-06-10T00:21:58;8.03;;;7.23;;
8042;SDS011;4064;48.132;11.366;2023-06-10T00:24:24;7.80;;;7.10;;
8042;SDS011;4064;48.132;11.366;2023-06-10T00:26:51;7.50;;;6.90;;
8042;SDS011;4064;48.132;11.366;2023-06-10T00:29:17;6.47;;;5.87;;
8042;SDS011;4064;48.132;11.366;2023-06-10T00:31:44;7.13;;;6.40;;
8042;SDS011;4064;48.132;11.366;2023-06-10T00:34:11;7.53;;;6.83;;
8042;SDS011;4064;48.132;11.366;2023-06-10T00:36:38;8.03;;;7.33;;
8042;SDS011;4064;48.132;11.366;2023-06-10T00:39:04;6.50;;;5.90;;
8042;SDS011;4064;48.132;11.366;2023-06-10T00:41:30;7.07;;;6.47;;
8042;SDS011;4064;48.132;11.366;2023-06-10T00:43:58;6.33;;;5.83;;
8042;SDS011;4064;48.132;11.366;2023-06-10T00:46:24;7.40;;;6.70;;
8042;SDS011;4064;48.132;11.366;2023-06-10T00:48:52;7.70;;;6.90;;
8042;SDS011;4064;48.132;11.366;2023-06-10T00:51:18;7.13;;;6.43;;
8042;SDS011;4064;48.132;11.366;2023-06-10T00:53:44;8.30;;;6.97;;
8042;SDS011;4064;48.132;11.366;2023-06-10T00:56:11;7.57;;;6.87;;
8042;SDS011;4064;48.132;11.366;2023-06-10T00:58:38;9.10;;;8.30;;
8042;SDS011;4064;48.132;11.366;2023-06-10T01:01:04;8.27;;;7.53;;
8042;SDS011;4064;48.132;11.366;2023-06-10T01:03:30;9.23;;;8.30;;
8042;SDS011;4064;48.132;11.366;2023-06-10T01:06:06;7.67;;;6.80;;
8042;SDS011;4064;48.132;11.366;2023-06-10T01:08:42;7.63;;;7.03;;
8042;SDS011;4064;48.132;11.366;2023-06-10T01:11:23;10.23;;;7.90;;
8042;SDS011;4064;48.132;11.366;2023-06-10T01:13:53;7.73;;;7.10;;
8042;SDS011;4064;48.132;11.366;2023-06-10T01:16:21;9.20;;;8.30;;
8042;SDS011;4064;48.132;11.366;2023-06-10T01:18:48;9.97;;;8.97;;
8042;SDS011;4064;48.132;11.366;2023-06-10T01:21:21;7.53;;;6.93;;
8042;SDS011;4064;48.132;11.366;2023-06-10T01:23:50;8.73;;;6.87;;
8042;SDS011;4064;48.132;11.366;2023-06-10T01:26:19;7.60;;;7.00;;
8042;SDS011;4064;48.132;11.366;2023-06-10T01:28:58;9.53;;;7.20;;
8042;SDS011;4064;48.132;11.366;2023-06-10T01:31:37;8.03;;;7.33;;
8042;SDS011;4064;48.132;11.366;2023-06-10T01:34:12;8.13;;;7.33;;
8042;SDS011;4064;48.132;11.366;2023-06-10T01:36:48;8.50;;;7.70;;
8042;SDS011;4064;48.132;11.366;2023-06-10T01:39:16;8.37;;;7.57;;
8042;SDS011;4064;48.132;11.366;2023-06-10T01:41:47;8.57;;;7.77;;
8042;SDS011;4064;48.132;11.366;2023-06-10T01:44:17;8.30;;;7.60;;
8042;SDS011;4064;48.132;11.366;2023-06-10T01:46:44;8.30;;;7.50;;
8042;SDS011;4064;48.132;11.366;2023-06-10T01:49:10;8.50;;;7.20;;
8042;SDS011;4064;48.132;11.366;2023-06-10T01:51:37;8.30;;;7.50;;
8042;SDS011;4064;48.132;11.366;2023-06-10T01:54:03;7.30;;;6.60;;
8042;SDS011;4064;48.132;11.366;2023-06-10T01:56:29;7.50;;;6.80;;
8042;SDS011;4064;48.132;11.366;2023-06-10T01:58:55;8.53;;;7.70;;
8042;SDS011;4064;48.132;11.366;2023-06-10T02:01:26;9.20;;;7.77;;
8042;SDS011;4064;48.132;11.366;2023-06-10T02:03:52;10.63;;;8.37;;
8042;SDS011;4064;48.132;11.366;2023-06-10T02:06:19;8.73;;;7.83;;
8042;SDS011;4064;48.132;11.366;2023-06-10T02:08:45;8.27;;;7.47;;
8042;SDS011;4064;48.132;11.366;2023-06-10T02:11:11;10.20;;;9.20;;
8042;SDS011;4064;48.132;11.366;2023-06-10T02:13:40;7.17;;;6.47;;
8042;SDS011;4064;48.132;11.366;2023-06-10T02:16:06;9.30;;;8.40;;
8042;SDS011;4064;48.132;11.366;2023-06-10T02:18:32;9.27;;;8.43;;
8042;SDS011;4064;48.132;11.366;2023-06-10T02:20:59;9.73;;;8.73;;
8042;SDS011;4064;48.132;11.366;2023-06-10T02:23:25;9.80;;;7.90;;
8042;SDS011;4064;48.132;11.366;2023-06-10T02:25:51;8.87;;;8.07;;
8042;SDS011;4064;48.132;11.366;2023-06-10T02:28:19;8.50;;;7.60;;
8042;SDS011;4064;48.132;11.366;2023-06-10T02:30:46;9.30;;;7.37;;
8042;SDS011;4064;48.132;11.366;2023-06-10T02:33:12;8.77;;;7.87;;
8042;SDS011;4064;48.132;11.366;2023-06-10T02:35:38;9.97;;;9.03;;
8042;SDS011;4064;48.132;11.366;2023-06-10T02:38:05;8.40;;;7.60;;
8042;SDS011;4064;48.132;11.366;2023-06-10T02:40:31;10.87;;;8.80;;
8042;SDS011;4064;48.132;11.366;2023-06-10T02:42:57;10.10;;;9.10;;
8042;SDS011;4064;48.132;11.366;2023-06-10T02:45:24;9.03;;;8.13;;
8042;SDS011;4064;48.132;11.366;2023-06-10T02:47:50;9.20;;;8.30;;
8042;SDS011;4064;48.132;11.366;2023-06-10T02:50:17;9.80;;;8.90;;
8042;SDS011;4064;48.132;11.366;2023-06-10T02:52:43;9.30;;;8.40;;
8042;SDS011;4064;48.132;11.366;2023-06-10T02:55:09;8.67;;;7.77;;
8042;SDS011;4064;48.132;11.366;2023-06-10T02:57:36;9.57;;;8.60;;
8042;SDS011;4064;48.132;11.366;2023-06-10T03:00:02;10.07;;;9.07;;
8042;SDS011;4064;48.132;11.366;2023-06-10T03:02:34;9.30;;;8.40;;
8042;SDS011;4064;48.132;11.366;2023-06-10T03:05:02;10.37;;;9.03;;
8042;SDS011;4064;48.132;11.366;2023-06-10T03:07:28;9.17;;;8.37;;
8042;SDS011;4064;48.132;11.366;2023-06-10T03:09:55;9.97;;;9.07;;
8042;SDS011;4064;48.132;11.366;2023-06-10T03:12:21;10.00;;;9.00;;
8042;SDS011;4064;48.132;11.366;2023-06-10T03:14:48;12.80;;;8.90;;
8042;SDS011;4064;48.132;11.366;2023-06-10T03:17:14;9.93;;;8.93;;
8042;SDS011;4064;48.132;11.366;2023-06-10T03:19:40;9.87;;;8.87;;
8042;SDS011;4064;48.132;11.366;2023-06-10T03:22:07;10.53;;;9.53;;
8042;SDS011;4064;48.132;11.366;2023-06-10T03:24:40;10.40;;;8.87;;
8042;SDS011;4064;48.132;11.366;2023-06-10T03:27:10;11.50;;;9.60;;
8042;SDS011;4064;48.132;11.366;2023-06-10T03:29:36;11.73;;;10.10;;
8042;SDS011;4064;48.132;11.366;2023-06-10T03:32:03;11.60;;;9.70;;
8042;SDS011;4064;48.132;11.366;2023-06-10T03:34:29;11.70;;;10.63;;
8042;SDS011;4064;48.132;11.366;2023-06-10T03:36:56;9.80;;;8.80;;
8042;SDS011;4064;48.132;11.366;2023-06-10T03:39:22;10.63;;;9.23;;
8042;SDS011;4064;48.132;11.366;2023-06-10T03:41:49;11.40;;;10.17;;
8042;SDS011;4064;48.132;11.366;2023-06-10T03:44:19;11.90;;;10.80;;
8042;SDS011;4064;48.132;11.366;2023-06-10T03:46:45;10.60;;;9.47;;
8042;SDS011;4064;48.132;11.366;2023-06-10T03:49:12;12.70;;;10.47;;
8042;SDS011;4064;48.132;11.366;2023-06-10T03:51:40;12.20;;;9.73;;
8042;SDS011;4064;48.132;11.366;2023-06-10T03:54:06;10.50;;;9.40;;
8042;SDS011;4064;48.132;11.366;2023-06-10T03:56:32;13.07;;;11.10;;
8042;SDS011;4064;48.132;11.366;2023-06-10T03:58:59;12.00;;;10.80;;
8042;SDS011;4064;48.132;11.366;2023-06-10T04:01:25;10.80;;;9.20;;
8042;SDS011;4064;48.132;11.366;2023-06-10T04:03:52;11.50;;;10.43;;
8042;SDS011;4064;48.132;11.366;2023-06-10T04:06:19;11.60;;;10.40;;
8042;SDS011;4064;48.132;11.366;2023-06-10T04:08:47;13.60;;;11.17;;
8042;SDS011;4064;48.132;11.366;2023-06-10T04:11:14;12.53;;;11.23;;
8042;SDS011;4064;48.132;11.366;2023-06-10T04:13:43;16.67;;;11.17;;
8042;SDS011;4064;48.132;11.366;2023-06-10T04:16:09;12.00;;;10.80;;
8042;SDS011;4064;48.132;11.366;2023-06-10T04:18:35;14.20;;;12.33;;
8042;SDS011;4064;48.132;11.366;2023-06-10T04:21:02;11.80;;;10.47;;
8042;SDS011;4064;48.132;11.366;2023-06-10T04:23:28;12.17;;;10.97;;
8042;SDS011;4064;48.132;11.366;2023-06-10T04:25:54;12.07;;;10.87;;
8042;SDS011;4064;48.132;11.366;2023-06-10T04:28:20;13.23;;;11.93;;
8042;SDS011;4064;48.132;11.366;2023-06-10T04:30:46;12.67;;;11.30;;
8042;SDS011;4064;48.132;11.366;2023-06-10T04:33:13;12.13;;;10.93;;
8042;SDS011;4064;48.132;11.366;2023-06-10T04:35:39;11.83;;;10.73;;
8042;SDS011;4064;48.132;11.366;2023-06-10T04:38:05;12.43;;;10.40;;
8042;SDS011;4064;48.132;11.366;2023-06-10T04:40:32;12.43;;;9.93;;
8042;SDS011;4064;48.132;11.366;2023-06-10T04:42:58;10.70;;;9.63;;
8042;SDS011;4064;48.132;11.366;2023-06-10T04:45:24;13.00;;;10.80;;
8042;SDS011;4064;48.132;11.366;2023-06-10T04:47:51;15.10;;;13.20;;
8042;SDS011;4064;48.132;11.366;2023-06-10T04:50:17;12.17;;;10.90;;
8042;SDS011;4064;48.132;11.366;2023-06-10T04:52:43;12.17;;;10.87;;
8042;SDS011;4064;48.132;11.366;2023-06-10T04:55:10;12.13;;;10.90;;
8042;SDS011;4064;48.132;11.366;2023-06-10T04:57:37;11.80;;;10.47;;
8042;SDS011;4064;48.132;11.366;2023-06-10T05:00:03;13.07;;;10.87;;
8042;SDS011;4064;48.132;11.366;2023-06-10T05:02:31;12.17;;;11.00;;
8042;SDS011;4064;48.132;11.366;2023-06-10T05:04:57;11.73;;;10.53;;
8042;SDS011;4064;48.132;11.366;2023-06-10T05:07:25;11.17;;;10.00;;
8042;SDS011;4064;48.132;11.366;2023-06-10T05:09:53;11.17;;;10.00;;
8042;SDS011;4064;48.132;11.366;2023-06-10T05:12:19;12.30;;;10.30;;
8042;SDS011;4064;48.132;11.366;2023-06-10T05:14:45;11.60;;;10.40;;
8042;SDS011;4064;48.132;11.366;2023-06-10T05:17:12;11.77;;;10.67;;
8042;SDS011;4064;48.132;11.366;2023-06-10T05:19:38;11.23;;;10.00;;
8042;SDS011;4064;48.132;11.366;2023-06-10T05:22:05;11.57;;;10.47;;
8042;SDS011;4064;48.132;11.366;2023-06-10T05:24:30;10.30;;;9.30;;
8042;SDS011;4064;48.132;11.366;2023-06-10T05:26:56;10.70;;;9.60;;
8042;SDS011;4064;48.132;11.366;2023-06-10T05:29:25;14.63;;;11.87;;
8042;SDS011;4064;48.132;11.366;2023-06-10T05:31:58;10.90;;;9.80;;
8042;SDS011;4064;48.132;11.366;2023-06-10T05:34:28;11.03;;;10.00;;
8042;SDS011;4064;48.132;11.366;2023-06-10T05:36:55;12.30;;;10.80;;
8042;SDS011;4064;48.132;11.366;2023-06-10T05:39:21;11.60;;;10.20;;
8042;SDS011;4064;48.132;11.366;2023-06-10T05:41:50;11.87;;;10.00;;
8042;SDS011;4064;48.132;11.366;2023-06-10T05:44:16;11.37;;;10.27;;
8042;SDS011;4064;48.132;11.366;2023-06-10T05:46:42;11.70;;;10.60;;
8042;SDS011;4064;48.132;11.366;2023-06-10T05:49:08;11.17;;;10.07;;
8042;SDS011;4064;48.132;11.366;2023-06-10T05:51:35;11.30;;;9.67;;
8042;SDS011;4064;48.132;11.366;2023-06-10T05:54:01;11.30;;;10.17;;
8042;SDS011;4064;48.132;11.366;2023-06-10T05:56:28;10.63;;;9.53;;
8042;SDS011;4064;48.132;11.366;2023-06-10T05:58:54;12.17;;;10.10;;
8042;SDS011;4064;48.132;11.366;2023-06-10T06:01:20;9.87;;;8.87;;
8042;SDS011;4064;48.132;11.366;2023-06-10T06:03:45;10.50;;;9.50;;
8042;SDS011;4064;48.132;11.366;2023-06-10T06:06:11;9.93;;;9.03;;
8042;SDS011;4064;48.132;11.366;2023-06-10T06:08:37;9.90;;;8.87;;
8042;SDS011;4064;48.132;11.366;2023-06-10T06:11:03;8.97;;;8.10;;
8042;SDS011;4064;48.132;11.366;2023-06-10T06:13:29;11.57;;;9.33;;
8042;SDS011;4064;48.132;11.366;2023-06-10T06:15:55;9.63;;;8.73;;
8042;SDS011;4064;48.132;11.366;2023-06-10T06:18:21;11.50;;;10.37;;
8042;SDS011;4064;48.132;11.366;2023-06-10T06:20:51;11.40;;;9.07;;
8042;SDS011;4064;48.132;11.366;2023-06-10T06:23:17;9.23;;;8.33;;
8042;SDS011;4064;48.132;11.366;2023-06-10T06:25:43;9.90;;;8.87;;
8042;SDS011;4064;48.132;11.366;2023-06-10T06:28:09;9.97;;;8.97;;
8042;SDS011;4064;48.132;11.366;2023-06-10T06:30:35;9.53;;;8.63;;
8042;SDS011;4064;48.132;11.366;2023-06-10T06:33:01;9.23;;;8.33;;
8042;SDS011;4064;48.132;11.366;2023-06-10T06:35:30;9.70;;;8.80;;
8042;SDS011;4064;48.132;11.366;2023-06-10T06:37:57;8.93;;;7.57;;
8042;SDS011;4064;48.132;11.366;2023-06-10T06:40:24;11.53;;;9.73;;
8042;SDS011;4064;48.132;11.366;2023-06-10T06:42:50;9.50;;;8.53;;
8042;SDS011;4064;48.132;11.366;2023-06-10T06:45:16;10.10;;;9.10;;
8042;SDS011;4064;48.132;11.366;2023-06-10T06:47:42;10.07;;;9.03;;
8042;SDS011;4064;48.132;11.366;2023-06-10T06:50:09;8.90;;;7.93;;
8042;SDS011;4064;48.132;11.366;2023-06-10T06:52:35;8.80;;;8.00;;
8042;SDS011;4064;48.132;11.366;2023-06-10T06:55:01;9.50;;;8.03;;
8042;SDS011;4064;48.132;11.366;2023-06-10T06:57:27;8.87;;;8.07;;
8042;SDS011;4064;48.132;11.366;2023-06-10T06:59:54;8.77;;;7.97;;
8042;SDS011;4064;48.132;11.366;2023-06-10T07:02:20;8.13;;;7.17;;
8042;SDS011;4064;48.132;11.366;2023-06-10T07:04:46;9.30;;;8.33;;
8042;SDS011;4064;48.132;11.366;2023-06-10T07:07:14;10.03;;;9.03;;
8042;SDS011;4064;48.132;11.366;2023-06-10T07:09:40;9.10;;;8.20;;
8042;SDS011;4064;48.132;11.366;2023-06-10T07:12:07;8.43;;;7.53;;
8042;SDS011;4064;48.132;11.366;2023-06-10T07:14:33;8.73;;;7.50;;
8042;SDS011;4064;48.132;11.366;2023-06-10T07:16:59;8.43;;;7.63;;
8042;SDS011;4064;48.132;11.366;2023-06-10T07:19:25;6.90;;;6.20;;
8042;SDS011;4064;48.132;11.366;2023-06-10T07:21:52;8.10;;;7.30;;
8042;SDS011;4064;48.132;11.366;2023-06-10T07:24:18;7.93;;;7.13;;
8042;SDS011;4064;48.132;11.366;2023-06-10T07:26:45;6.57;;;5.90;;
8042;SDS011;4064;48.132;11.366;2023-06-10T07:29:11;7.43;;;6.83;;
8042;SDS011;4064;48.132;11.366;2023-06-10T07:31:40;6.33;;;5.73;;
8042;SDS011;4064;48.132;11.366;2023-06-10T07:34:07;6.37;;;5.70;;
8042;SDS011;4064;48.132;11.366;2023-06-10T07:36:33;6.77;;;6.17;;
8042;SDS011;4064;48.132;11.366;2023-06-10T07:38:59;5.67;;;5.17;;
8042;SDS011;4064;48.132;11.366;2023-06-10T07:41:25;5.30;;;4.80;;
8042;SDS011;4064;48.132;11.366;2023-06-10T07:43:55;6.10;;;5.27;;
8042;SDS011;4064;48.132;11.366;2023-06-10T07:46:21;5.27;;;4.67;;
8042;SDS011;4064;48.132;11.366;2023-06-10T07:48:53;5.10;;;4.60;;
8042;SDS011;4064;48.132;11.366;2023-06-10T07:51:20;4.83;;;4.43;;
8042;SDS011;4064;48.132;11.366;2023-06-10T07:53:46;4.40;;;4.00;;
8042;SDS011;4064;48.132;11.366;2023-06-10T07:56:12;5.53;;;5.03;;
8042;SDS011;4064;48.132;11.366;2023-06-10T07:58:38;4.93;;;4.43;;
8042;SDS011;4064;48.132;11.366;2023-06-10T08:01:04;5.20;;;4.70;;
8042;SDS011;4064;48.132;11.366;2023-06-10T08:03:30;5.30;;;4.80;;
8042;SDS011;4064;48.132;11.366;2023-06-10T08:05:56;6.33;;;4.37;;
8042;SDS011;4064;48.132;11.366;2023-06-10T08:08:22;5.10;;;4.60;;
8042;SDS011;4064;48.132;11.366;2023-06-10T08:10:48;5.13;;;4.70;;
8042;SDS011;4064;48.132;11.366;2023-06-10T08:13:15;5.73;;;5.13;;
8042;SDS011;4064;48.132;11.366;2023-06-10T08:15:40;4.67;;;4.27;;
8042;SDS011;4064;48.132;11.366;2023-06-10T08:18:06;4.80;;;4.40;;
8042;SDS011;4064;48.132;11.366;2023-06-10T08:20:33;5.00;;;4.60;;
8042;SDS011;4064;48.132;11.366;2023-06-10T08:22:59;5.07;;;4.33;;
8042;SDS011;4064;48.132;11.366;2023-06-10T08:25:24;5.07;;;4.60;;
8042;SDS011;4064;48.132;11.366;2023-06-10T08:27:50;4.87;;;4.47;;
8042;SDS011;4064;48.132;11.366;2023-06-10T08:30:17;5.10;;;4.60;;
8042;SDS011;4064;48.132;11.366;2023-06-10T08:32:43;5.23;;;4.73;;
8042;SDS011;4064;48.132;11.366;2023-06-10T08:35:10;4.00;;;3.67;;
8042;SDS011;4064;48.132;11.366;2023-06-10T08:37:35;3.57;;;3.27;;
8042;SDS011;4064;48.132;11.366;2023-06-10T08:40:01;4.20;;;3.90;;
8042;SDS011;4064;48.132;11.366;2023-06-10T08:42:36;3.97;;;3.57;;
8042;SDS011;4064;48.132;11.366;2023-06-10T08:45:09;3.80;;;3.50;;
8042;SDS011;4064;48.132;11.366;2023-06-10T08:47:42;3.77;;;3.47;;
8042;SDS011;4064;48.132;11.366;2023-06-10T08:50:11;3.53;;;3.23;;
8042;SDS011;4064;48.132;11.366;2023-06-10T08:52:37;3.70;;;3.40;;
8042;SDS011;4064;48.132;11.366;2023-06-10T08:57:44;3.50;;;3.20;;
8042;SDS011;4064;48.132;11.366;2023-06-10T09:00:13;3.70;;;3.40;;
8042;SDS011;4064;48.132;11.366;2023-06-10T09:02:39;3.93;;;3.53;;
8042;SDS011;4064;48.132;11.366;2023-06-10T09:05:12;3.60;;;3.30;;
8042;SDS011;4064;48.132;11.366;2023-06-10T09:07:39;4.47;;;4.07;;
8042;SDS011;4064;48.132;11.366;2023-06-10T09:10:05;6.10;;;3.90;;
8042;SDS011;4064;48.132;11.366;2023-06-10T09:12:32;4.37;;;3.97;;
8042;SDS011;4064;48.132;11.366;2023-06-10T09:15:00;4.20;;;3.80;;
8042;SDS011;4064;48.132;11.366;2023-06-10T09:17:27;3.87;;;3.30;;
8042;SDS011;4064;48.132;11.366;2023-06-10T09:19:53;3.30;;;3.00;;
8042;SDS011;4064;48.132;11.366;2023-06-10T09:22:22;4.40;;;4.00;;
8042;SDS011;4064;48.132;11.366;2023-06-10T09:25:01;3.80;;;3.50;;
8042;SDS011;4064;48.132;11.366;2023-06-10T09:27:48;4.70;;;4.27;;
8042;SDS011;4064;48.132;11.366;2023-06-10T09:30:27;4.00;;;3.70;;
8042;SDS011;4064;48.132;11.366;2023-06-10T09:32:55;4.37;;;3.93;;
8042;SDS011;4064;48.132;11.366;2023-06-10T09:35:25;4.33;;;3.90;;
8042;SDS011;4064;48.132;11.366;2023-06-10T09:37:53;4.77;;;4.20;;
8042;SDS011;4064;48.132;11.366;2023-06-10T09:40:23;6.00;;;4.70;;
8042;SDS011;4064;48.132;11.366;2023-06-10T09:42:53;4.93;;;4.53;;
8042;SDS011;4064;48.132;11.366;2023-06-10T09:45:20;4.47;;;4.07;;
8042;SDS011;4064;48.132;11.366;2023-06-10T09:47:47;4.80;;;4.40;;
8042;SDS011;4064;48.132;11.366;2023-06-10T09:50:17;4.40;;;4.00;;
8042;SDS011;4064;48.132;11.366;2023-06-10T09:52:43;4.97;;;4.13;;
8042;SDS011;4064;48.132;11.366;2023-06-10T09:55:14;4.93;;;4.53;;
8042;SDS011;4064;48.132;11.366;2023-06-10T09:57:42;4.97;;;4.57;;
8042;SDS011;4064;48.132;11.366;2023-06-10T10:00:13;4.83;;;4.43;;
8042;SDS011;4064;48.132;11.366;2023-06-10T10:02:44;4.70;;;4.30;;
8042;SDS011;4064;48.132;11.366;2023-06-10T10:05:19;5.70;;;5.20;;
8042;SDS011;4064;48.132;11.366;2023-06-10T10:07:45;4.97;;;4.57;;
8042;SDS011;4064;48.132;11.366;2023-06-10T10:10:12;4.80;;;4.40;;
8042;SDS011;4064;48.132;11.366;2023-06-10T10:12:39;5.20;;;4.70;;
8042;SDS011;4064;48.132;11.366;2023-06-10T10:15:06;6.33;;;5.80;;
8042;SDS011;4064;48.132;11.366;2023-06-10T10:17:49;5.27;;;4.87;;
8042;SDS011;4064;48.132;11.366;2023-06-10T10:20:17;5.30;;;4.80;;
8042;SDS011;4064;48.132;11.366;2023-06-10T10:22:47;5.83;;;4.70;;
8042;SDS011;4064;48.132;11.366;2023-06-10T10:25:20;5.47;;;4.97;;
8042;SDS011;4064;48.132;11.366;2023-06-10T10:27:59;5.77;;;5.17;;
8042;SDS011;4064;48.132;11.366;2023-06-10T10:30:31;4.80;;;4.40;;
8042;SDS011;4064;48.132;11.366;2023-06-10T10:33:04;4.87;;;4.47;;
8042;SDS011;4064;48.132;11.366;2023-06-10T10:35:56;4.80;;;4.40;;
8042;SDS011;4064;48.132;11.366;2023-06-10T10:38:23;6.53;;;6.03;;
8042;SDS011;4064;48.132;11.366;2023-06-10T10:40:50;4.67;;;4.20;;
8042;SDS011;4064;48.132;11.366;2023-06-10T10:43:16;6.50;;;4.53;;
8042;SDS011;4064;48.132;11.366;2023-06-10T10:45:45;4.63;;;4.23;;
8042;SDS011;4064;48.132;11.366;2023-06-10T10:48:11;4.70;;;4.30;;
8042;SDS011;4064;48.132;11.366;2023-06-10T10:50:39;4.97;;;4.57;;
8042;SDS011;4064;48.132;11.366;2023-06-10T10:53:05;5.13;;;4.63;;
8042;SDS011;4064;48.132;11.366;2023-06-10T10:55:32;4.10;;;3.70;;
8042;SDS011;4064;48.132;11.366;2023-06-10T10:57:59;5.13;;;4.53;;
8042;SDS011;4064;48.132;11.366;2023-06-10T11:00:36;5.27;;;4.87;;
8042;SDS011;4064;48.132;11.366;2023-06-10T11:03:08;4.07;;;3.73;;
8042;SDS011;4064;48.132;11.366;2023-06-10T11:05:42;4.67;;;4.17;;
8042;SDS011;4064;48.132;11.366;2023-06-10T11:08:13;4.73;;;4.20;;
8042;SDS011;4064;48.132;11.366;2023-06-10T11:10:40;4.00;;;3.70;;
8042;SDS011;4064;48.132;11.366;2023-06-10T11:13:15;4.73;;;4.33;;
8042;SDS011;4064;48.132;11.366;2023-06-10T11:15:44;5.53;;;5.03;;
8042;SDS011;4064;48.132;11.366;2023-06-10T11:18:12;4.67;;;4.27;;
8042;SDS011;4064;48.132;11.366;2023-06-10T11:31:28;5.07;;;4.57;;
8042;SDS011;4064;48.132;11.366;2023-06-10T11:33:54;5.20;;;4.70;;
8042;SDS011;4064;48.132;11.366;2023-06-10T11:36:20;4.70;;;4.30;;
8042;SDS011;4064;48.132;11.366;2023-06-10T11:38:47;4.60;;;4.20;;
8042;SDS011;4064;48.132;11.366;2023-06-10T11:41:13;3.57;;;3.27;;
8042;SDS011;4064;48.132;11.366;2023-06-10T11:43:45;4.50;;;4.10;;
8042;SDS011;4064;48.132;11.366;2023-06-10T11:46:12;3.97;;;3.67;;
8042;SDS011;4064;48.132;11.366;2023-06-10T11:48:39;4.17;;;3.87;;
8042;SDS011;4064;48.132;11.366;2023-06-10T11:51:13;3.83;;;3.20;;
8042;SDS011;4064;48.132;11.366;2023-06-10T11:53:39;4.70;;;3.80;;
8042;SDS011;4064;48.132;11.366;2023-06-10T11:56:05;4.30;;;3.90;;
8042;SDS011;4064;48.132;11.366;2023-06-10T11:58:30;3.87;;;3.57;;
8042;SDS011;4064;48.132;11.366;2023-06-10T12:00:56;3.90;;;3.60;;
8042;SDS011;4064;48.132;11.366;2023-06-10T12:03:23;4.80;;;3.93;;
8042;SDS011;4064;48.132;11.366;2023-06-10T12:05:56;4.30;;;3.90;;
8042;SDS011;4064;48.132;11.366;2023-06-10T12:08:24;4.97;;;4.27;;
8042;SDS011;4064;48.132;11.366;2023-06-10T12:10:50;3.57;;;3.23;;
8042;SDS011;4064;48.132;11.366;2023-06-10T12:13:16;3.40;;;3.10;;
8042;SDS011;4064;48.132;11.366;2023-06-10T12:15:45;3.80;;;3.50;;
8042;SDS011;4064;48.132;11.366;2023-06-10T12:18:18;4.20;;;3.80;;
8042;SDS011;4064;48.132;11.366;2023-06-10T12:20:50;3.40;;;3.13;;
8042;SDS011;4064;48.132;11.366;2023-06-10T12:23:17;4.60;;;3.77;;
8042;SDS011;4064;48.132;11.366;2023-06-10T12:25:50;3.47;;;3.20;;
8042;SDS011;4064;48.132;11.366;2023-06-10T12:28:17;3.63;;;3.33;;
8042;SDS011;4064;48.132;11.366;2023-06-10T12:30:45;4.27;;;3.87;;
8042;SDS011;4064;48.132;11.366;2023-06-10T12:33:18;3.37;;;3.07;;
8042;SDS011;4064;48.132;11.366;2023-06-10T12:35:51;3.90;;;3.60;;
8042;SDS011;4064;48.132;11.366;2023-06-10T12:38:21;4.60;;;3.30;;
8042;SDS011;4064;48.132;11.366;2023-06-10T12:40:49;4.00;;;3.70;;
8042;SDS011;4064;48.132;11.366;2023-06-10T12:43:24;4.43;;;4.00;;
8042;SDS011;4064;48.132;11.366;2023-06-10T12:45:50;4.17;;;3.67;;
8042;SDS011;4064;48.132;11.366;2023-06-10T12:48:23;3.60;;;3.30;;
8042;SDS011;4064;48.132;11.366;2023-06-10T12:50:53;3.70;;;3.40;;
8042;SDS011;4064;48.132;11.366;2023-06-10T12:53:20;4.13;;;3.27;;
8042;SDS011;4064;48.132;11.366;2023-06-10T12:55:48;5.30;;;3.70;;
8042;SDS011;4064;48.132;11.366;2023-06-10T12:58:14;4.10;;;3.80;;
8042;SDS011;4064;48.132;11.366;2023-06-10T13:00:40;3.23;;;2.70;;
8042;SDS011;4064;48.132;11.366;2023-06-10T13:03:07;3.80;;;3.50;;
8042;SDS011;4064;48.132;11.366;2023-06-10T13:05:37;3.40;;;3.10;;
8042;SDS011;4064;48.132;11.366;2023-06-10T13:08:04;4.03;;;3.50;;
8042;SDS011;4064;48.132;11.366;2023-06-10T13:10:32;3.50;;;3.20;;
8042;SDS011;4064;48.132;11.366;2023-06-10T13:12:59;4.20;;;3.87;;
8042;SDS011;4064;48.132;11.366;2023-06-10T13:15:25;3.73;;;3.43;;
8042;SDS011;4064;48.132;11.366;2023-06-10T13:17:51;4.73;;;4.03;;
8042;SDS011;4064;48.132;11.366;2023-06-10T13:20:17;3.70;;;3.30;;
8042;SDS011;4064;48.132;11.366;2023-06-10T13:22:44;5.07;;;4.33;;
8042;SDS011;4064;48.132;11.366;2023-06-10T13:25:10;4.17;;;3.87;;
8042;SDS011;4064;48.132;11.366;2023-06-10T13:27:36;3.80;;;3.40;;
8042;SDS011;4064;48.132;11.366;2023-06-10T13:30:07;3.50;;;3.20;;
8042;SDS011;4064;48.132;11.366;2023-06-10T13:32:33;3.07;;;2.87;;
8042;SDS011;4064;48.132;11.366;2023-06-10T13:34:59;3.30;;;2.90;;
8042;SDS011;4064;48.132;11.366;2023-06-10T13:37:25;3.80;;;3.23;;
8042;SDS011;4064;48.132;11.366;2023-06-10T13:39:51;5.13;;;3.67;;
8042;SDS011;4064;48.132;11.366;2023-06-10T13:42:17;4.23;;;3.67;;
8042;SDS011;4064;48.132;11.366;2023-06-10T13:44:43;4.47;;;4.07;;
8042;SDS011;4064;48.132;11.366;2023-06-10T13:47:09;4.47;;;4.10;;
8042;SDS011;4064;48.132;11.366;2023-06-10T13:49:35;3.90;;;3.60;;
8042;SDS011;4064;48.132;11.366;2023-06-10T13:52:01;4.80;;;4.40;;
8042;SDS011;4064;48.132;11.366;2023-06-10T13:54:27;5.40;;;4.90;;
8042;SDS011;4064;48.132;11.366;2023-06-10T13:56:53;4.30;;;3.90;;
8042;SDS011;4064;48.132;11.366;2023-06-10T13:59:19;4.40;;;4.10;;
8042;SDS011;4064;48.132;11.366;2023-06-10T14:01:46;4.37;;;3.93;;
8042;SDS011;4064;48.132;11.366;2023-06-10T14:04:12;4.43;;;4.03;;
8042;SDS011;4064;48.132;11.366;2023-06-10T14:06:38;5.10;;;4.60;;
8042;SDS011;4064;48.132;11.366;2023-06-10T14:09:04;3.80;;;3.50;;
8042;SDS011;4064;48.132;11.366;2023-06-10T14:11:30;3.73;;;3.43;;
8042;SDS011;4064;48.132;11.366;2023-06-10T14:13:56;4.20;;;3.50;;
8042;SDS011;4064;48.132;11.366;2023-06-10T14:16:22;3.97;;;3.67;;
8042;SDS011;4064;48.132;11.366;2023-06-10T14:18:48;4.07;;;3.77;;
8042;SDS011;4064;48.132;11.366;2023-06-10T14:21:17;4.30;;;3.90;;
8042;SDS011;4064;48.132;11.366;2023-06-10T14:23:43;4.17;;;3.77;;
8042;SDS011;4064;48.132;11.366;2023-06-10T14:26:09;5.60;;;4.20;;
8042;SDS011;4064;48.132;11.366;2023-06-10T14:28:35;4.27;;;3.87;;
8042;SDS011;4064;48.132;11.366;2023-06-10T14:31:01;4.00;;;3.60;;
8042;SDS011;4064;48.132;11.366;2023-06-10T14:33:27;4.30;;;3.90;;
8042;SDS011;4064;48.132;11.366;2023-06-10T14:35:53;3.53;;;3.23;;
8042;SDS011;4064;48.132;11.366;2023-06-10T14:38:19;4.50;;;4.10;;
8042;SDS011;4064;48.132;11.366;2023-06-10T14:40:45;4.10;;;3.70;;
8042;SDS011;4064;48.132;11.366;2023-06-10T14:43:11;3.73;;;3.07;;
8042;SDS011;4064;48.132;11.366;2023-06-10T14:45:37;3.77;;;3.40;;
8042;SDS011;4064;48.132;11.366;2023-06-10T14:48:06;3.17;;;2.87;;
8042;SDS011;4064;48.132;11.366;2023-06-10T14:50:34;3.70;;;3.20;;
8042;SDS011;4064;48.132;11.366;2023-06-10T14:53:00;4.97;;;3.77;;
8042;SDS011;4064;48.132;11.366;2023-06-10T14:55:25;3.80;;;3.20;;
8042;SDS011;4064;48.132;11.366;2023-06-10T14:57:51;4.07;;;3.67;;
8042;SDS011;4064;48.132;11.366;2023-06-10T15:00:17;3.73;;;3.40;;
8042;SDS011;4064;48.132;11.366;2023-06-10T15:02:48;4.20;;;3.87;;
8042;SDS011;4064;48.132;11.366;2023-06-10T15:05:14;5.80;;;3.60;;
8042;SDS011;4064;48.132;11.366;2023-06-10T15:07:42;3.60;;;3.30;;
8042;SDS011;4064;48.132;11.366;2023-06-10T15:10:08;4.27;;;3.87;;
8042;SDS011;4064;48.132;11.366;2023-06-10T15:12:35;3.80;;;3.50;;